Airport View

Enter AWOS ICAO identifier for current METAR.

ex. KFNL

KHOB 171035Z AUTO 36022KT 10SM CLR 10/M01 A3004 RMK AO2

17 Nov 2019 10:44

Frequency: 119.75

Phone: 575-393-8418

Other Area AWOS: KGNC - KE11 - KINK - KCNM

TAF AMD KHOB 170637Z 1707/1806 21007KT P6SM FEW200 FM171000 35018G26KT P6SM SKC FM172000 36008KT P6SM SKC